Main page
METAR-TAF:

METAR-TAF

Airports :

Rundu Airport

Rundu, Namibia

latitude: 17-57-20S, longitude: 019-43-25E, elevation: 1106 m

Current weather observation

The report was made 54 minutes ago, at 00:00 UTC
Wind 3 kt from the South/Southeast
Temperature 14°C
Humidity 55%
Pressure 1027 hPa

METAR: FYRU 240000Z AUTO 16003KT //// // ////// 14/05 Q1027

Time: 02:54 (00:54 UTC)

Forecast

The report was made 7 hours and 54 minutes ago, at 17:00 UTC
Forecast valid from 23 at 18 UTC to 24 at 03 UTC
Wind 3 kt from the South/Southeast
Visibility 10 km or more
no clouds below 1500 m and no cumulonimbus

TAF: FYRU 231700Z 2318/2403 15003KT CAVOK

Weather observations and forecasts of more than 4000 airports (METAR and TAF reports).

The available stations are represented by yellow and red dots on the map.

Hover mouse over dot to see the name of the station.

Then click to see weather observations and forecasts.

To change the map : click on the green buttons with a black cross to zoom in, on the green button with a dash to zoom out, or on the green arrows for adjacent maps.


METAR-TAF: